Immokalee, FL

3:04 PM EDT on August 28, 2016 (GMT -0400)
Ave Maria | | Change Station

Elev 61 ft 26.34 °N, 81.44 °W | Updated 3 minutes ago

Light Thunderstorms and Rain
Light Thunderstorm Rain
81.4 °F
Feels Like 89 °F
N
4.0
Wind Variable Wind from SE
Gusts 7.0 mph

Today
High -- | Low -- °F
--% Chance of Precip.
Yesterday
High -- | Low -- °F
Precip. -- in
Pressure 29.89 in
Visibility 10.0 miles
Clouds Scattered Clouds 4300 ft
Mostly Cloudy 5500 ft
Heat Index 89 °F
Dew Point 77 °F
Humidity 86%
Rainfall 0.00 in
Snow Depth Not available.
7:04 AM 7:49 PM
Waning Crescent, 14% visible
SPECI KRSW 281901Z 08018G25KT 10SM -TSRA SCT043 BKN055 32/24 A2989 RMK AO2 LTG DSNT SW RAB1856 TSB01 P0000 T03220239
Pressure 29.89 in
Visibility 10.0 miles
Clouds Scattered Clouds 4300 ft
Mostly Cloudy 5500 ft
Heat Index 89 °F
Dew Point 77 °F
Humidity 86%
Rainfall 0.00 in
Snow Depth Not available.
7:04 AM 7:49 PM
Waning Crescent, 14% visible
SPECI KRSW 281901Z 08018G25KT 10SM -TSRA SCT043 BKN055 32/24 A2989 RMK AO2 LTG DSNT SW RAB1856 TSB01 P0000 T03220239

10-Day Weather Forecast

Almanac

Astronomy

Aug. 28, 2016 Rise Set
Actual Time
Civil Twilight
Nautical Twilight
Astronomical Twilight
Moon
Length of Visible Light
Length of Day
Tomorrow will be .
, % of the Moon is Illuminated

Today's Extremes

State Highs State Lows

Community

WunderPhotos

Upload Photos

1,935,660 photos uploaded!

WunderBlog® & News

Nearby

Air Quality

  Air Quality AQ Index Pollutant
Not available.

Snow Depth

Station Depth Elevation

Earthquake Activity

City Distance Mag. Time & Date
Minimum magnitude displayed is 2.5.

Coastal Water Temperatures

Place Temperature

Stations

Nearby Weather Stations

Station Location Temp. Windchill Dew Point Humidity Wind Precip. Elev Updated Type
                   

Watches & Warnings

There are currently no watches in effect.